Lomé–Tokoin International Airport

DXXX · Région maritime, Togo

METAR anciennes DXXX · Aéroport international de Lomé-Tokoin

Tu vois ci-dessous les METAR des derniers jours. Sélectionne une année pour parcourir les METAR plus anciens, à partir de l'année 2007.

14 juin 2024

Temps Code Temps Temp. Vue Base cloud Vent METAR/SPECI
19:00
V
25 °C 10 km+ - 210° 210° 4 kt METAR DXXX 141900Z 21004KT 9999 SCT010 SCT013 25/23 Q1012 RETS NOSIG
18:00
I
24 °C 10 km+ 800 ft 260° 260° 5 kt METAR DXXX 141800Z 26005KT 9999 TS BKN008 BKN013 FEW020CB 24/23 Q1012 NOSIG
17:00
I
24 °C 8 km 800 ft 280° 280° 5 kt METAR DXXX 141700Z 28005KT 8000 -TSRA BKN008 BKN013 FEW020CB 24/23 Q1012 NOSIG
16:00
I
24 °C 8 km 800 ft 230° 230° 5 kt METAR DXXX 141600Z 23005KT 8000 -TSRA BKN008 FEW020CB 24/23 Q1012 NOSIG
15:00
I
24 °C 6 km 800 ft 170° 170° 4 kt METAR DXXX 141500Z 17004KT 120V210 6000 -TSRA BKN008 FEW020CB 24/23 Q1012 NOSIG
14:00
I
24 °C 3,5 km 800 ft 170° 170° 5 kt METAR DXXX 141400Z 17005KT 120V200 3500 TSRA BKN008 FEW020CB 24/22 Q1013 NOSIG
13:00
M
28 °C 8 km 3.000 ft 220° 220° 8 kt METAR DXXX 141300Z 22008KT 8000 -TSRA SCT013 FEW020CB BKN030 28/25 Q1013 TEMPO 08020G35KT 4000 TSRA
12:00
M
29 °C 10 km+ 3.000 ft 250° 250° 8 kt METAR DXXX 141200Z 25008KT 9999 SCT013 FEW020CB BKN030 29/24 Q1014 TEMPO 08020G35KT 4000 TSRA
11:00
V
29 °C 10 km+ 13.000 ft 260° 260° 11 kt METAR DXXX 141100Z 26011KT 9999 SCT013 FEW020CB BKN130 29/25 Q1014 TEMPO 08020G35KT 4000 TSRA
10:00
V
29 °C 10 km+ - 250° 250° 12 kt METAR DXXX 141000Z 25012KT 9999 SCT013 FEW020CB 29/24 Q1014 TEMPO TS
09:00
V
29 °C 10 km+ - 260° 260° 15 kt METAR DXXX 140900Z 26015KT 9999 FEW013 29/24 Q1014 NOSIG
08:00
V
27 °C 10 km+ - 260° 260° 10 kt METAR DXXX 140800Z 26010KT 9999 FEW012 27/25 Q1013 NOSIG
07:00
V
26 °C 8 km - 260° 260° 7 kt METAR DXXX 140700Z 26007KT 8000 FEW010 26/24 Q1013 NOSIG
06:00
V
26 °C 10 km+ - 270° 270° 8 kt METAR DXXX 140600Z 27008KT 9999 FEW010 26/24 Q1012 NOSIG
05:00
V
26 °C 10 km+ - 270° 270° 9 kt METAR DXXX 140500Z 27009KT 9999 FEW012 26/24 Q1012 NOSIG
04:00
V
26 °C 10 km+ - 270° 270° 6 kt METAR DXXX 140400Z 27006KT 9999 FEW012 26/24 Q1012 NOSIG
03:00
V
26 °C 10 km+ - 270° 270° 6 kt METAR DXXX 140300Z 27006KT 250V310 9999 FEW012 SCT030 26/25 Q1011 NOSIG
02:00
V
26 °C 10 km+ - 270° 270° 6 kt METAR DXXX 140200Z 27006KT 9999 SCT012 26/25 Q1012 TEMPO BKN012
01:00
V
27 °C 10 km+ - 260° 260° 10 kt METAR DXXX 140100Z 26010KT 9999 SCT012 27/25 Q1012 NOSIG
00:00
M
27 °C 10 km+ 1.300 ft 260° 260° 8 kt METAR DXXX 140000Z 26008KT 9999 BKN013 27/25 Q1013 NOSIG

13 juin 2024

Temps Code Temps Temp. Vue Base cloud Vent METAR/SPECI
23:00
V
28 °C 10 km+ - 260° 260° 6 kt METAR DXXX 132300Z 26006KT 9999 SCT013 28/25 Q1013 TEMPO BKN013
22:00
V
28 °C 10 km+ - 230° 230° 10 kt METAR DXXX 132200Z 23010KT 9999 FEW013 28/25 Q1013 NOSIG
21:00
V
28 °C 10 km+ - 230° 230° 12 kt METAR DXXX 132100Z 23012KT 9999 FEW013 28/25 Q1012 NOSIG
20:00
V
28 °C 10 km+ - 240° 240° 12 kt METAR DXXX 132000Z 24012KT 9999 FEW013 28/25 Q1012 NOSIG
19:00
V
28 °C 10 km+ - 230° 230° 11 kt METAR DXXX 131900Z 23011KT 9999 FEW013 28/24 Q1012 NOSIG
18:00
V
29 °C 10 km+ - 220° 220° 11 kt METAR DXXX 131800Z 22011KT 9999 FEW014 29/25 Q1011 NOSIG
17:00
V
29 °C 10 km+ - 220° 220° 11 kt METAR DXXX 131700Z 22011KT 9999 FEW014 FEW020CB 29/25 Q1011 NOSIG
16:00
V
30 °C 10 km+ - 220° 220° 13 kt METAR DXXX 131600Z 22013KT 9999 FEW015 FEW020CB 30/25 Q1011 NOSIG
15:00
V
31 °C 10 km+ - 220° 220° 11 kt METAR DXXX 131500Z 22011KT 190V250 9999 FEW015 31/25 Q1011 NOSIG
14:00
V
31 °C 10 km+ - 230° 230° 12 kt METAR DXXX 131400Z 23012KT 200V260 9999 FEW015 31/25 Q1011 NOSIG
13:00
V
30 °C 10 km+ - 220° 220° 11 kt METAR DXXX 131300Z 22011KT 190V250 9999 FEW015 FEW020TCU 30/25 Q1012 NOSIG
12:00
V
30 °C 10 km+ - 210° 210° 10 kt METAR DXXX 131200Z 21010KT 180V240 9999 SCT015 30/25 Q1013 NOSIG
11:00
V
29 °C 10 km+ - 230° 230° 9 kt METAR DXXX 131100Z 23009KT 9999 SCT014 FEW020CB 29/25 Q1014 NOSIG
10:00
V
29 °C 10 km+ - 230° 230° 8 kt METAR DXXX 131000Z 23008KT 200V260 9999 SCT013 SCT030 29/25 Q1014 NOSIG
09:00
V
29 °C 10 km+ - 230° 230° 6 kt METAR DXXX 130900Z 23006KT 9999 SCT013 SCT030 29/25 Q1015 NOSIG
08:00
V
28 °C 8 km - Var Var 2 kt METAR DXXX 130800Z VRB02KT 8000 SCT012 28/26 Q1014 NOSIG
07:00
M
27 °C 10 km+ 3.000 ft 280° 280° 4 kt METAR DXXX 130700Z 28004KT 9999 SCT012 BKN030 27/25 Q1014 NOSIG
06:00
V
27 °C 10 km+ - Var Var 3 kt METAR DXXX 130600Z VRB03KT 9999 SCT012 27/25 Q1013 NOSIG
05:00
V
27 °C 10 km+ - 280° 280° 4 kt METAR DXXX 130500Z 28004KT 240V300 9999 SCT012 27/25 Q1013 TEMPO BKN012
04:00
V
27 °C 10 km+ - 240° 240° 5 kt METAR DXXX 130400Z 24005KT 9999 SCT012 27/25 Q1012 NOSIG
03:00
V
27 °C 10 km+ - 250° 250° 7 kt METAR DXXX 130300Z 25007KT 9999 FEW012 27/25 Q1012 NOSIG
02:00
V
27 °C 10 km+ - 240° 240° 7 kt METAR DXXX 130200Z 24007KT 9999 FEW012 27/24 Q1012 NOSIG
01:00
V
28 °C 10 km+ - 240° 240° 7 kt METAR DXXX 130100Z 24007KT 220V280 9999 SCT012 28/25 Q1013 NOSIG
00:00
V
27 °C 10 km+ - 240° 240° 8 kt METAR DXXX 130000Z 24008KT 9999 FEW012 27/25 Q1013 NOSIG

12 juin 2024

Temps Code Temps Temp. Vue Base cloud Vent METAR/SPECI
23:00
V
27 °C 10 km+ - 230° 230° 8 kt METAR DXXX 122300Z 23008KT 9999 FEW012 27/25 Q1013 NOSIG
22:00
V
28 °C 10 km+ - 220° 220° 7 kt METAR DXXX 122200Z 22007KT 9999 FEW012 28/25 Q1013 NOSIG
21:00
V
28 °C 10 km+ - 220° 220° 8 kt METAR DXXX 122100Z 22008KT 180V240 9999 SCT012 28/25 Q1013 NOSIG
20:00
V
28 °C 10 km+ - 220° 220° 9 kt METAR DXXX 122000Z 22009KT 180V240 9999 SCT012 28/25 Q1012 NOSIG
19:00
V
28 °C 10 km+ - 220° 220° 8 kt METAR DXXX 121900Z 22008KT 9999 FEW012 28/25 Q1012 NOSIG
18:00
V
28 °C 10 km+ - 210° 210° 9 kt METAR DXXX 121800Z 21009KT 9999 FEW012 28/25 Q1011 NOSIG
17:00
V
29 °C 10 km+ - 220° 220° 9 kt METAR DXXX 121700Z 22009KT 190V250 9999 FEW013 29/24 Q1011 NOSIG
16:00
V
30 °C 10 km+ - 210° 210° 10 kt METAR DXXX 121600Z 21010KT 170V250 9999 FEW013 30/24 Q1011 NOSIG
11:00
V
30 °C 10 km+ - 210° 210° 9 kt METAR DXXX 121100Z 21009KT 180V250 9999 FEW013 30/25 Q1013 NOSIG
10:00
V
30 °C 10 km+ - 240° 240° 9 kt METAR DXXX 121000Z 24009KT 9999 FEW013 30/25 Q1014 NOSIG
09:00
V
29 °C 10 km+ - 240° 240° 5 kt METAR DXXX 120900Z 24005KT 180V290 9999 SCT013 29/25 Q1014 NOSIG
08:00
V
27 °C 10 km+ - 340° 340° 4 kt METAR DXXX 120800Z 34004KT 310V010 9999 SCT012 27/24 Q1014 NOSIG
07:00
V
26 °C 10 km+ - 290° 290° 4 kt METAR DXXX 120700Z 29004KT 9999 FEW010 26/24 Q1013 NOSIG
06:00
M
25 °C 10 km+ 2.000 ft 240° 240° 4 kt METAR DXXX 120600Z 24004KT 9999 SCT010 BKN020 25/24 Q1013 NOSIG
Signaler les modifications